createdAt,value
2018-09-26T00:00:09.427Z,982.41
2018-09-26T00:01:09.380Z,982.33
2018-09-26T00:02:09.357Z,982.38
2018-09-26T00:03:09.363Z,982.33
2018-09-26T00:04:09.460Z,982.37
2018-09-26T00:05:09.387Z,982.39
2018-09-26T00:06:09.374Z,982.42
2018-09-26T00:07:09.353Z,982.41
2018-09-26T00:08:09.324Z,982.44
2018-09-26T00:09:09.320Z,982.42
2018-09-26T00:10:09.375Z,982.40
2018-09-26T00:11:09.372Z,982.43
2018-09-26T00:12:09.303Z,982.43
2018-09-26T00:13:09.314Z,982.41
2018-09-26T00:14:09.278Z,982.39
2018-09-26T00:15:09.269Z,982.44
2018-09-26T00:16:09.327Z,982.43
2018-09-26T00:17:09.265Z,982.44
2018-09-26T00:18:10.940Z,982.54
2018-09-26T00:19:09.252Z,982.51
2018-09-26T00:20:09.377Z,982.54
2018-09-26T00:21:09.243Z,982.57
2018-09-26T00:22:09.257Z,982.59
2018-09-26T00:23:10.944Z,982.60
2018-09-26T00:24:09.272Z,982.54
2018-09-26T00:25:09.247Z,982.54
2018-09-26T00:26:12.026Z,982.57
2018-09-26T00:27:11.007Z,982.50
2018-09-26T00:28:09.197Z,982.51
2018-09-26T00:29:09.260Z,982.48
2018-09-26T00:30:09.172Z,982.46
2018-09-26T00:31:09.203Z,982.48
2018-09-26T00:32:09.155Z,982.51
2018-09-26T00:33:09.183Z,982.49
2018-09-26T00:34:09.162Z,982.50
2018-09-26T00:35:09.150Z,982.52
2018-09-26T00:36:09.375Z,982.57
2018-09-26T00:37:09.272Z,982.56
2018-09-26T00:38:09.245Z,982.58
2018-09-26T00:39:09.201Z,982.56
2018-09-26T00:40:09.130Z,982.57
2018-09-26T00:41:09.149Z,982.54
2018-09-26T00:42:09.105Z,982.54
2018-09-26T00:43:10.955Z,982.53
2018-09-26T00:44:12.001Z,982.50
2018-09-26T00:45:09.181Z,982.47
2018-09-26T00:46:10.964Z,982.39
2018-09-26T00:47:12.014Z,982.45
2018-09-26T00:48:09.198Z,982.43
2018-09-26T00:49:10.159Z,982.42
2018-09-26T00:50:09.105Z,982.39
2018-09-26T00:51:09.197Z,982.37
2018-09-26T00:52:09.096Z,982.35
2018-09-26T00:53:09.019Z,982.37
2018-09-26T00:54:11.995Z,982.29
2018-09-26T00:55:09.023Z,982.34
2018-09-26T00:56:09.023Z,982.29
2018-09-26T00:57:10.150Z,982.34
2018-09-26T00:58:20.977Z,982.30
2018-09-26T00:59:11.305Z,982.25
2018-09-26T01:00:09.941Z,982.27
2018-09-26T01:01:10.884Z,982.25
2018-09-26T01:02:11.022Z,982.24
2018-09-26T01:03:10.400Z,982.29
2018-09-26T01:04:10.897Z,982.23
2018-09-26T01:05:12.392Z,982.27
2018-09-26T01:06:10.904Z,982.28
2018-09-26T01:07:10.386Z,982.28
2018-09-26T01:08:09.948Z,982.29
2018-09-26T01:09:12.545Z,982.30
2018-09-26T01:10:09.928Z,982.30
2018-09-26T01:11:11.472Z,982.27
2018-09-26T01:12:10.333Z,982.25
2018-09-26T01:13:11.469Z,982.23
2018-09-26T01:14:10.876Z,982.20
2018-09-26T01:15:09.055Z,982.19
2018-09-26T01:16:11.590Z,982.17
2018-09-26T01:17:11.559Z,982.17
2018-09-26T01:18:18.126Z,982.15
2018-09-26T01:35:56.223Z,982.15
2018-09-26T01:36:54.338Z,982.19
2018-09-26T01:41:25.360Z,982.06
2018-09-26T01:43:28.153Z,982.01
2018-09-26T01:45:46.769Z,981.95
2018-09-26T01:46:47.243Z,981.94
2018-09-26T01:47:54.993Z,981.90
2018-09-26T01:51:15.600Z,981.80
2018-09-26T01:53:41.657Z,981.68
2018-09-26T01:56:16.577Z,981.68
2018-09-26T01:57:38.185Z,981.64
2018-09-26T01:58:13.048Z,981.58
2018-09-26T02:02:14.175Z,981.46
2018-09-26T02:04:51.981Z,981.52
2018-09-26T02:09:16.916Z,981.53
2018-09-26T02:16:00.732Z,981.38
2018-09-26T02:18:29.696Z,981.41
2018-09-26T02:21:25.849Z,981.31
2018-09-26T02:25:25.302Z,981.35
2018-09-26T02:26:31.772Z,981.36
2018-09-26T02:28:22.794Z,981.38
2018-09-26T02:29:17.971Z,981.30
2018-09-26T02:30:18.804Z,981.35
2018-09-26T02:31:19.367Z,981.35
2018-09-26T02:33:43.176Z,981.28
2018-09-26T02:34:42.200Z,981.28
2018-09-26T02:35:42.562Z,981.34
2018-09-26T02:36:42.111Z,981.37
2018-09-26T02:37:40.591Z,981.40
2018-09-26T02:38:39.883Z,981.31
2018-09-26T02:39:39.354Z,981.40
2018-09-26T02:40:39.340Z,981.33
2018-09-26T02:41:39.343Z,981.31
2018-09-26T02:42:38.814Z,981.27
2018-09-26T02:43:39.338Z,981.30
2018-09-26T02:44:41.553Z,981.30
2018-09-26T02:45:39.812Z,981.28
2018-09-26T02:46:39.762Z,981.20
2018-09-26T02:49:04.833Z,981.26
2018-09-26T02:50:05.276Z,981.27
2018-09-26T02:51:05.310Z,981.26
2018-09-26T02:52:06.409Z,981.20
2018-09-26T02:53:05.280Z,981.16
2018-09-26T02:54:05.881Z,981.23
2018-09-26T02:55:05.795Z,981.27
2018-09-26T02:56:05.900Z,981.32
2018-09-26T02:57:05.284Z,981.34
2018-09-26T02:58:05.294Z,981.29
2018-09-26T02:59:05.398Z,981.34
2018-09-26T03:00:05.405Z,981.31
2018-09-26T03:01:04.763Z,981.28
2018-09-26T03:02:05.881Z,981.25
2018-09-26T03:03:05.356Z,981.23
2018-09-26T03:04:05.745Z,981.25
2018-09-26T03:05:05.372Z,981.21
2018-09-26T03:06:05.223Z,981.21
2018-09-26T03:07:05.167Z,981.14
2018-09-26T03:08:05.363Z,981.10
2018-09-26T03:09:05.735Z,981.15
2018-09-26T03:10:05.389Z,981.15
2018-09-26T03:11:06.370Z,981.14
2018-09-26T03:12:05.372Z,981.12
2018-09-26T03:13:05.393Z,981.10
2018-09-26T03:14:05.389Z,981.08
2018-09-26T03:15:05.657Z,981.05
2018-09-26T03:16:05.163Z,980.98
2018-09-26T03:17:05.359Z,980.98
2018-09-26T03:18:04.414Z,980.93
2018-09-26T03:19:04.182Z,980.94
2018-09-26T03:20:04.201Z,980.91
2018-09-26T03:21:04.179Z,980.93
2018-09-26T03:22:06.109Z,980.93
2018-09-26T03:23:04.226Z,980.99
2018-09-26T03:24:04.232Z,980.94
2018-09-26T03:25:04.164Z,980.96
2018-09-26T03:26:04.323Z,981.00
2018-09-26T03:28:30.344Z,980.95
2018-09-26T03:29:28.744Z,980.99
2018-09-26T03:31:27.547Z,980.96
2018-09-26T03:32:23.850Z,980.93
2018-09-26T03:33:26.200Z,980.86
2018-09-26T03:36:57.542Z,980.86
2018-09-26T03:37:55.836Z,980.81
2018-09-26T03:38:56.896Z,980.86
2018-09-26T03:45:03.433Z,980.89
2018-09-26T03:45:44.862Z,980.87
2018-09-26T03:46:45.817Z,980.84
2018-09-26T03:47:44.779Z,980.79
2018-09-26T03:48:46.323Z,980.77
2018-09-26T03:49:44.805Z,980.73
2018-09-26T03:50:44.789Z,980.78
2018-09-26T03:51:45.814Z,980.76
2018-09-26T03:52:44.764Z,980.75
2018-09-26T03:53:45.224Z,980.74
2018-09-26T03:54:45.870Z,980.71
2018-09-26T03:55:45.261Z,980.70
2018-09-26T03:56:45.210Z,980.72
2018-09-26T03:57:44.699Z,980.72
2018-09-26T03:58:45.322Z,980.76
2018-09-26T03:59:48.984Z,980.83
2018-09-26T04:00:44.661Z,980.84
2018-09-26T04:03:30.568Z,980.77
2018-09-26T04:04:29.136Z,980.80
2018-09-26T04:06:37.403Z,980.80
2018-09-26T04:07:22.885Z,980.76
2018-09-26T04:09:25.710Z,980.67
2018-09-26T04:10:16.928Z,980.71
2018-09-26T04:11:18.776Z,980.72
2018-09-26T04:12:20.301Z,980.75
2018-09-26T04:13:18.744Z,980.74
2018-09-26T04:14:30.813Z,980.77
2018-09-26T04:17:11.278Z,980.79
2018-09-26T04:20:02.688Z,980.67
2018-09-26T04:20:39.219Z,980.65
2018-09-26T04:21:40.692Z,980.66
2018-09-26T04:22:41.123Z,980.72
2018-09-26T04:23:46.778Z,980.72
2018-09-26T04:26:19.648Z,980.85
2018-09-26T04:27:30.259Z,980.81
2018-09-26T04:47:33.857Z,980.87
2018-09-26T04:48:38.972Z,980.91
2018-09-26T04:49:33.039Z,980.91
2018-09-26T04:50:32.538Z,980.88
2018-09-26T04:51:32.491Z,980.84
2018-09-26T04:54:27.053Z,980.73
2018-09-26T04:57:39.518Z,980.86
2018-09-26T04:58:41.654Z,980.85
2018-09-26T05:00:43.686Z,980.77
2018-09-26T05:01:29.302Z,980.78
2018-09-26T05:03:34.658Z,980.79
2018-09-26T05:04:25.793Z,980.86
2018-09-26T05:07:13.112Z,980.91
2018-09-26T05:08:13.412Z,980.91
2018-09-26T05:10:06.604Z,980.84
2018-09-26T05:11:06.546Z,980.83
2018-09-26T05:13:00.034Z,980.69
2018-09-26T05:14:00.248Z,980.74
2018-09-26T05:14:59.945Z,980.72
2018-09-26T05:16:07.167Z,980.68
2018-09-26T05:17:55.009Z,980.77
2018-09-26T05:18:53.927Z,980.70
2018-09-26T05:20:46.679Z,980.68
2018-09-26T05:21:46.663Z,980.69
2018-09-26T05:22:49.736Z,980.62
2018-09-26T05:23:55.839Z,980.68
2018-09-26T05:25:40.476Z,980.74
2018-09-26T05:26:41.312Z,980.69
2018-09-26T05:27:40.288Z,980.69
2018-09-26T05:28:42.114Z,980.68
2018-09-26T05:29:40.420Z,980.63
2018-09-26T05:30:40.231Z,980.61
2018-09-26T05:31:40.212Z,980.59
2018-09-26T05:32:40.261Z,980.48
2018-09-26T05:33:42.083Z,980.51
2018-09-26T05:34:42.030Z,980.51
2018-09-26T05:35:40.194Z,980.38
2018-09-26T05:36:40.178Z,980.37
2018-09-26T05:37:40.167Z,980.37
2018-09-26T05:38:40.160Z,980.44
2018-09-26T05:39:40.158Z,980.44
2018-09-26T05:40:40.145Z,980.41
2018-09-26T05:41:40.191Z,980.41
2018-09-26T05:42:40.172Z,980.36
2018-09-26T05:43:40.125Z,980.33
2018-09-26T05:44:40.119Z,980.32
2018-09-26T05:45:40.114Z,980.37
2018-09-26T05:46:40.110Z,980.34
2018-09-26T05:47:40.102Z,980.27
2018-09-26T05:48:40.107Z,980.25
2018-09-26T05:49:40.090Z,980.28
2018-09-26T05:50:40.164Z,980.23
2018-09-26T05:51:40.077Z,980.19
2018-09-26T05:52:40.071Z,980.13
2018-09-26T05:53:40.065Z,980.09
2018-09-26T05:54:40.058Z,980.13
2018-09-26T05:55:40.052Z,980.07
2018-09-26T05:56:40.047Z,980.06
2018-09-26T05:57:40.054Z,980.09
2018-09-26T05:58:40.040Z,980.02
2018-09-26T05:59:40.084Z,980.02
2018-09-26T06:00:40.023Z,980.02
2018-09-26T06:01:40.016Z,979.95
2018-09-26T06:02:40.016Z,980.07
2018-09-26T06:03:40.007Z,979.98
2018-09-26T06:04:39.997Z,980.05
2018-09-26T06:05:39.993Z,980.10
2018-09-26T06:06:39.986Z,980.05
2018-09-26T06:07:39.980Z,979.98
2018-09-26T06:08:39.975Z,980.03
2018-09-26T06:09:39.970Z,980.03
2018-09-26T06:10:39.967Z,980.06
2018-09-26T06:11:39.961Z,980.06
2018-09-26T06:12:39.952Z,980.12
2018-09-26T06:13:39.950Z,980.13
2018-09-26T06:14:39.941Z,980.19
2018-09-26T06:15:39.957Z,980.11
2018-09-26T06:16:39.933Z,980.14
2018-09-26T06:17:39.929Z,980.19
2018-09-26T06:18:39.919Z,980.06
2018-09-26T06:19:39.914Z,980.12
2018-09-26T06:20:39.913Z,980.12
2018-09-26T06:21:39.905Z,980.06
2018-09-26T06:22:39.920Z,980.07
2018-09-26T06:23:39.906Z,980.01
2018-09-26T06:24:39.903Z,979.97
2018-09-26T06:25:39.887Z,979.98
2018-09-26T06:26:39.881Z,979.97
2018-09-26T06:27:39.880Z,979.97
2018-09-26T06:28:39.874Z,979.95
2018-09-26T06:29:39.864Z,979.95
2018-09-26T06:30:39.861Z,979.97
2018-09-26T06:31:39.855Z,979.96
2018-09-26T06:32:39.862Z,979.91
2018-09-26T06:33:39.850Z,979.95
2018-09-26T06:34:39.843Z,979.91
2018-09-26T06:35:39.839Z,979.92
2018-09-26T06:36:39.840Z,979.94
2018-09-26T06:37:39.832Z,979.98
2018-09-26T06:38:39.831Z,980.05
2018-09-26T06:39:39.823Z,980.11
2018-09-26T06:40:39.822Z,980.16
2018-09-26T06:41:39.817Z,980.25
2018-09-26T06:42:39.833Z,980.28
2018-09-26T06:43:39.836Z,980.34
2018-09-26T06:44:39.807Z,980.44
2018-09-26T06:45:39.808Z,980.56
2018-09-26T06:46:39.805Z,980.73
2018-09-26T06:47:39.803Z,980.88
2018-09-26T06:48:39.800Z,980.97
2018-09-26T06:49:47.040Z,980.99
2018-09-26T06:51:32.714Z,981.18
2018-09-26T06:52:40.237Z,981.70
2018-09-26T06:54:25.598Z,981.96
2018-09-26T06:55:25.539Z,981.86
2018-09-26T06:57:18.651Z,981.47
2018-09-26T06:58:18.627Z,981.23
2018-09-26T07:00:12.044Z,980.98
2018-09-26T07:01:12.021Z,981.02
2018-09-26T07:03:05.410Z,980.97
2018-09-26T07:04:05.410Z,981.02
2018-09-26T07:05:58.291Z,980.89
2018-09-26T07:06:58.259Z,981.01
2018-09-26T07:08:51.212Z,980.92
2018-09-26T07:09:51.182Z,980.96
2018-09-26T07:11:44.041Z,980.90
2018-09-26T07:12:44.035Z,980.87
2018-09-26T07:13:44.022Z,980.97
2018-09-26T07:14:44.029Z,980.97
2018-09-26T07:15:44.031Z,980.92
2018-09-26T07:16:44.033Z,980.96
2018-09-26T07:17:44.082Z,980.92
2018-09-26T07:18:44.039Z,980.90
2018-09-26T07:19:44.041Z,980.81
2018-09-26T07:20:44.045Z,980.89
2018-09-26T07:21:44.045Z,980.82
2018-09-26T07:22:44.051Z,980.81
2018-09-26T07:23:44.061Z,980.89
2018-09-26T07:24:44.068Z,980.87
2018-09-26T07:25:44.062Z,980.82
2018-09-26T07:26:44.069Z,980.79
2018-09-26T07:27:44.073Z,980.91
2018-09-26T07:28:44.074Z,980.91
2018-09-26T07:29:44.087Z,980.87
2018-09-26T07:30:44.085Z,980.88
2018-09-26T07:31:44.092Z,980.87
2018-09-26T07:32:44.091Z,981.09
2018-09-26T07:33:44.096Z,981.10
2018-09-26T07:34:44.100Z,981.25
2018-09-26T07:35:44.103Z,981.32
2018-09-26T07:36:44.108Z,981.43
2018-09-26T07:37:44.118Z,981.36
2018-09-26T07:38:44.125Z,981.20
2018-09-26T07:39:44.122Z,980.91
2018-09-26T07:40:44.125Z,980.80
2018-09-26T07:41:44.130Z,980.72
2018-09-26T07:42:44.137Z,980.73
2018-09-26T07:43:44.152Z,980.65
2018-09-26T07:44:44.146Z,980.59
2018-09-26T07:45:44.172Z,980.66
2018-09-26T07:46:44.155Z,980.67
2018-09-26T07:47:44.159Z,980.81
2018-09-26T07:48:44.162Z,981.00
2018-09-26T07:49:44.166Z,981.29
2018-09-26T07:50:44.170Z,981.49
2018-09-26T07:51:44.175Z,981.52
2018-09-26T07:52:44.183Z,981.64
2018-09-26T07:53:44.183Z,981.68
2018-09-26T07:54:44.209Z,981.76
2018-09-26T07:55:44.194Z,981.65
2018-09-26T07:56:44.198Z,981.67
2018-09-26T07:57:44.202Z,981.54
2018-09-26T07:58:44.211Z,981.73
2018-09-26T07:59:44.219Z,981.70
2018-09-26T08:00:44.219Z,981.76
2018-09-26T08:01:44.247Z,981.85
2018-09-26T08:02:44.231Z,981.61
2018-09-26T08:03:44.230Z,981.79
2018-09-26T08:04:44.239Z,981.66
2018-09-26T08:05:44.244Z,981.70
2018-09-26T08:06:44.251Z,981.67
2018-09-26T08:07:44.253Z,981.74
2018-09-26T08:08:44.260Z,981.60
2018-09-26T08:09:44.267Z,981.78
2018-09-26T08:10:44.283Z,981.89
2018-09-26T08:11:44.332Z,981.78
2018-09-26T08:12:44.281Z,981.77
2018-09-26T08:13:44.290Z,981.79
2018-09-26T08:14:44.298Z,981.77
2018-09-26T08:15:44.298Z,981.80
2018-09-26T08:16:44.325Z,981.71
2018-09-26T08:17:44.320Z,981.72
2018-09-26T08:18:44.456Z,981.60
2018-09-26T08:19:44.323Z,981.57
2018-09-26T08:20:44.328Z,981.59
2018-09-26T08:21:44.334Z,981.60
2018-09-26T08:22:44.763Z,981.66
2018-09-26T08:23:44.379Z,981.85
2018-09-26T08:24:44.362Z,981.85
2018-09-26T08:25:44.357Z,981.93
2018-09-26T08:26:44.365Z,981.99
2018-09-26T08:27:44.401Z,981.94
2018-09-26T08:28:44.384Z,981.98
2018-09-26T08:29:44.411Z,981.92
2018-09-26T08:30:44.436Z,981.93
2018-09-26T08:31:44.420Z,981.88
2018-09-26T08:32:44.432Z,981.83
2018-09-26T08:33:44.408Z,981.88
2018-09-26T08:34:44.419Z,981.86
2018-09-26T08:35:44.422Z,981.80
2018-09-26T08:36:44.431Z,981.85
2018-09-26T08:37:44.440Z,981.80
2018-09-26T08:38:44.447Z,981.76
2018-09-26T08:39:44.449Z,981.82
2018-09-26T08:40:44.460Z,981.74
2018-09-26T08:41:44.466Z,981.86
2018-09-26T08:42:44.474Z,981.84
2018-09-26T08:43:44.727Z,981.52
2018-09-26T08:44:44.489Z,981.80
2018-09-26T08:45:44.497Z,981.82
2018-09-26T08:46:44.504Z,981.81
2018-09-26T08:47:44.516Z,981.86
2018-09-26T08:48:44.519Z,981.86
2018-09-26T08:49:44.532Z,981.89
2018-09-26T08:50:44.536Z,981.73
2018-09-26T08:51:44.543Z,981.92
2018-09-26T08:52:44.547Z,981.94
2018-09-26T08:53:44.583Z,981.90
2018-09-26T08:54:44.561Z,981.78
2018-09-26T08:55:44.572Z,981.97
2018-09-26T08:56:44.577Z,981.88
2018-09-26T08:57:44.582Z,981.84
2018-09-26T08:58:44.592Z,981.80
2018-09-26T08:59:44.621Z,981.80
2018-09-26T09:00:44.608Z,981.79
2018-09-26T09:01:44.629Z,981.70
2018-09-26T09:02:44.630Z,981.66
2018-09-26T09:03:44.646Z,981.72
2018-09-26T09:04:44.636Z,981.74
2018-09-26T09:05:44.665Z,981.76
2018-09-26T09:06:44.680Z,981.78
2018-09-26T09:07:44.669Z,981.80
2018-09-26T09:08:44.723Z,981.67
2018-09-26T09:09:44.689Z,981.67
2018-09-26T09:10:44.691Z,981.73
2018-09-26T09:11:44.719Z,981.65
2018-09-26T09:12:44.701Z,981.69
2018-09-26T09:13:44.743Z,981.64
2018-09-26T09:14:44.897Z,981.65
2018-09-26T09:15:44.719Z,981.47
2018-09-26T09:16:44.741Z,981.48
2018-09-26T09:17:44.779Z,981.23
2018-09-26T09:18:44.741Z,981.43
2018-09-26T09:19:44.779Z,981.35
2018-09-26T09:20:44.782Z,981.27
2018-09-26T09:21:44.763Z,981.40
2018-09-26T09:22:44.769Z,981.35
2018-09-26T09:23:44.812Z,981.35
2018-09-26T09:24:44.808Z,981.33
2018-09-26T09:25:44.790Z,981.39
2018-09-26T09:26:44.798Z,981.24
2018-09-26T09:27:44.907Z,981.26
2018-09-26T09:28:44.839Z,981.35
2018-09-26T09:29:44.817Z,981.35
2018-09-26T09:30:44.822Z,981.32
2018-09-26T09:31:44.832Z,981.26
2018-09-26T09:32:44.834Z,981.27
2018-09-26T09:33:44.839Z,981.44
2018-09-26T09:34:44.873Z,981.47
2018-09-26T09:35:44.857Z,981.52
2018-09-26T09:36:44.872Z,981.48
2018-09-26T09:37:44.867Z,981.45
2018-09-26T09:38:44.872Z,981.26
2018-09-26T09:39:44.881Z,981.21
2018-09-26T09:40:44.886Z,981.13
2018-09-26T09:41:44.889Z,981.22
2018-09-26T09:42:44.895Z,981.10
2018-09-26T09:43:44.901Z,981.01
2018-09-26T09:44:44.907Z,980.90
2018-09-26T09:45:44.920Z,980.80
2018-09-26T09:46:44.917Z,980.82
2018-09-26T09:47:44.924Z,980.85
2018-09-26T09:48:44.937Z,980.79
2018-09-26T09:49:44.934Z,980.62
2018-09-26T09:50:44.940Z,980.54
2018-09-26T09:51:45.010Z,980.52
2018-09-26T09:52:44.975Z,980.52
2018-09-26T09:53:44.957Z,980.47
2018-09-26T09:54:44.962Z,980.46
2018-09-26T09:55:44.965Z,980.51
2018-09-26T09:56:44.973Z,980.49
2018-09-26T09:57:44.992Z,980.47
2018-09-26T09:58:44.982Z,980.46
2018-09-26T09:59:45.001Z,980.41
2018-09-26T10:00:44.990Z,980.39
2018-09-26T10:01:44.998Z,980.41
2018-09-26T10:02:45.086Z,980.33
2018-09-26T10:03:45.023Z,980.31
2018-09-26T10:04:45.009Z,980.27
2018-09-26T10:05:45.026Z,980.31
2018-09-26T10:06:45.013Z,980.28
2018-09-26T10:07:45.018Z,980.24
2018-09-26T10:08:45.070Z,980.28
2018-09-26T10:09:45.025Z,980.20
2018-09-26T10:10:45.031Z,980.25
2018-09-26T10:11:45.036Z,980.13
2018-09-26T10:12:45.037Z,980.13
2018-09-26T10:13:45.044Z,980.12
2018-09-26T10:14:45.042Z,980.14
2018-09-26T10:15:45.046Z,980.17
2018-09-26T10:16:45.050Z,980.13
2018-09-26T10:17:45.057Z,980.10
2018-09-26T10:18:45.058Z,980.14
2018-09-26T10:19:45.060Z,980.15
2018-09-26T10:20:45.066Z,980.22
2018-09-26T10:21:45.068Z,980.22
2018-09-26T10:22:45.075Z,980.18
2018-09-26T10:23:45.075Z,980.26
2018-09-26T10:24:45.082Z,980.23
2018-09-26T10:25:45.081Z,980.21
2018-09-26T10:26:45.086Z,980.19
2018-09-26T10:27:45.087Z,980.25
2018-09-26T10:28:45.088Z,980.22
2018-09-26T10:29:45.100Z,980.17
2018-09-26T10:30:45.100Z,980.26
2018-09-26T10:31:45.110Z,980.12
2018-09-26T10:32:45.105Z,980.12
2018-09-26T10:33:45.113Z,980.16
2018-09-26T10:34:45.152Z,980.11
2018-09-26T10:35:45.117Z,980.18
2018-09-26T10:36:45.119Z,980.21
2018-09-26T10:37:45.124Z,980.21
2018-09-26T10:38:45.127Z,980.22
2018-09-26T10:39:45.132Z,980.20
2018-09-26T10:40:45.167Z,980.23
2018-09-26T10:41:45.161Z,980.30
2018-09-26T10:42:45.145Z,980.28
2018-09-26T10:43:45.144Z,980.24
2018-09-26T10:44:45.149Z,980.24
2018-09-26T10:45:45.162Z,980.20
2018-09-26T10:46:45.265Z,980.20
2018-09-26T10:47:45.169Z,980.16
2018-09-26T10:48:45.167Z,980.11
2018-09-26T10:49:45.169Z,980.10
2018-09-26T10:50:45.175Z,980.10
2018-09-26T10:51:45.177Z,980.04
2018-09-26T10:52:45.205Z,979.97
2018-09-26T10:53:45.183Z,979.97
2018-09-26T10:54:45.191Z,979.97
2018-09-26T10:55:45.225Z,979.99
2018-09-26T10:56:45.281Z,980.01
2018-09-26T10:57:46.082Z,980.03
2018-09-26T10:58:45.206Z,980.01
2018-09-26T10:59:45.216Z,980.08
2018-09-26T11:00:45.213Z,980.01
2018-09-26T11:01:45.223Z,980.02
2018-09-26T11:02:45.228Z,979.97
2018-09-26T11:03:45.427Z,979.91
2018-09-26T11:04:45.230Z,979.92
2018-09-26T11:05:45.247Z,979.89
2018-09-26T11:06:45.236Z,979.87
2018-09-26T11:07:45.241Z,979.88
2018-09-26T11:08:45.246Z,979.89
2018-09-26T11:09:45.249Z,979.89
2018-09-26T11:10:45.253Z,979.91
2018-09-26T11:11:45.257Z,979.84
2018-09-26T11:12:46.677Z,979.89
2018-09-26T11:13:45.281Z,979.84
2018-09-26T11:14:45.268Z,979.85
2018-09-26T11:15:45.287Z,979.86
2018-09-26T11:16:45.277Z,979.86
2018-09-26T11:17:45.281Z,979.85
2018-09-26T11:18:45.289Z,979.84
2018-09-26T11:19:45.301Z,979.80
2018-09-26T11:20:45.316Z,979.84
2018-09-26T11:21:45.297Z,979.87
2018-09-26T11:22:45.301Z,979.86
2018-09-26T11:23:45.303Z,979.85
2018-09-26T11:24:52.869Z,979.84
2018-09-26T11:26:38.733Z,979.84
2018-09-26T11:27:38.234Z,979.82
2018-09-26T11:29:31.364Z,979.77
2018-09-26T11:30:31.083Z,979.80
2018-09-26T11:32:24.371Z,979.76
2018-09-26T11:33:24.184Z,979.80
2018-09-26T11:35:17.264Z,979.84
2018-09-26T11:36:16.897Z,979.88
2018-09-26T11:38:10.687Z,979.88
2018-09-26T11:39:10.431Z,979.86
2018-09-26T11:41:04.087Z,979.84
2018-09-26T11:42:03.953Z,979.89
2018-09-26T11:43:57.040Z,979.86
2018-09-26T11:44:56.645Z,979.89
2018-09-26T11:46:49.803Z,979.86
2018-09-26T11:47:49.596Z,979.88
2018-09-26T11:49:42.749Z,979.85
2018-09-26T11:50:42.716Z,979.87
2018-09-26T11:52:35.653Z,979.72
2018-09-26T11:53:35.476Z,979.74
2018-09-26T11:55:28.539Z,979.72
2018-09-26T11:56:28.624Z,979.77
2018-09-26T11:58:21.646Z,979.72
2018-09-26T11:59:21.374Z,979.66
2018-09-26T12:01:14.965Z,979.65
2018-09-26T12:02:14.943Z,979.58
2018-09-26T12:04:08.342Z,979.60
2018-09-26T12:05:07.791Z,979.58
2018-09-26T12:07:01.293Z,979.57
2018-09-26T12:08:00.655Z,979.45
2018-09-26T12:09:54.123Z,979.40
2018-09-26T12:10:54.574Z,979.42
2018-09-26T12:12:48.065Z,979.43
2018-09-26T12:13:47.399Z,979.42
2018-09-26T12:15:39.332Z,979.37
2018-09-26T12:16:39.802Z,979.30
2018-09-26T12:18:33.038Z,979.33
2018-09-26T12:19:33.035Z,979.31
2018-09-26T12:21:30.537Z,979.26
2018-09-26T12:22:25.644Z,979.33
2018-09-26T12:23:25.534Z,979.28
2018-09-26T12:24:26.090Z,979.28
2018-09-26T12:25:25.846Z,979.20
2018-09-26T12:26:25.468Z,979.24
2018-09-26T12:27:25.476Z,979.22
2018-09-26T12:28:25.555Z,979.20
2018-09-26T12:29:25.477Z,979.18
2018-09-26T12:30:25.513Z,979.20
2018-09-26T12:31:25.483Z,979.20
2018-09-26T12:32:25.481Z,979.21
2018-09-26T12:33:25.488Z,979.19
2018-09-26T12:34:25.551Z,979.18
2018-09-26T12:35:25.492Z,979.17
2018-09-26T12:36:25.559Z,979.17
2018-09-26T12:37:25.525Z,979.12
2018-09-26T12:38:25.502Z,979.08
2018-09-26T12:39:25.502Z,979.07
2018-09-26T12:40:25.601Z,979.07
2018-09-26T12:41:25.583Z,979.06
2018-09-26T12:42:25.641Z,979.10
2018-09-26T12:43:25.514Z,979.11
2018-09-26T12:44:25.514Z,979.11
2018-09-26T12:45:25.518Z,979.12
2018-09-26T12:46:25.613Z,979.11
2018-09-26T12:47:25.692Z,979.12
2018-09-26T12:48:25.571Z,979.11
2018-09-26T12:49:25.534Z,979.11
2018-09-26T12:50:25.534Z,979.07
2018-09-26T12:51:25.541Z,979.12
2018-09-26T12:52:25.590Z,979.07
2018-09-26T12:53:25.563Z,979.10
2018-09-26T12:54:25.543Z,979.07
2018-09-26T12:55:25.548Z,979.02
2018-09-26T12:56:25.549Z,979.06
2018-09-26T12:57:25.560Z,979.06
2018-09-26T12:58:25.643Z,979.05
2018-09-26T12:59:25.555Z,979.08
2018-09-26T13:00:25.643Z,979.09
2018-09-26T13:01:25.574Z,979.05
2018-09-26T13:02:25.668Z,979.09
2018-09-26T13:03:25.628Z,979.06
2018-09-26T13:04:25.708Z,979.04
2018-09-26T13:05:25.578Z,979.04
2018-09-26T13:06:25.591Z,979.03
2018-09-26T13:07:25.576Z,979.02
2018-09-26T13:08:25.614Z,978.99
2018-09-26T13:09:25.580Z,979.02
2018-09-26T13:10:25.684Z,978.98
2018-09-26T13:11:25.585Z,979.00
2018-09-26T13:12:25.682Z,979.01
2018-09-26T13:13:25.589Z,979.03
2018-09-26T13:14:25.656Z,979.01
2018-09-26T13:15:25.614Z,979.02
2018-09-26T13:16:26.532Z,979.02
2018-09-26T13:17:25.602Z,979.03
2018-09-26T13:18:25.740Z,979.01
2018-09-26T13:19:25.607Z,979.03
2018-09-26T13:20:25.655Z,979.04
2018-09-26T13:21:25.616Z,979.01
2018-09-26T13:22:25.774Z,978.95
2018-09-26T13:23:25.630Z,978.94
2018-09-26T13:24:25.653Z,978.92
2018-09-26T13:25:25.773Z,978.93
2018-09-26T13:26:25.635Z,978.93
2018-09-26T13:27:25.657Z,978.93
2018-09-26T13:28:25.740Z,978.89
2018-09-26T13:29:25.634Z,978.83
2018-09-26T13:30:25.702Z,978.84
2018-09-26T13:31:25.639Z,978.81
2018-09-26T13:32:25.731Z,978.83
2018-09-26T13:33:25.665Z,978.83
2018-09-26T13:34:25.719Z,978.84
2018-09-26T13:35:25.658Z,978.88
2018-09-26T13:36:25.710Z,978.82
2018-09-26T13:37:25.787Z,978.79
2018-09-26T13:38:25.757Z,978.80
2018-09-26T13:39:25.696Z,978.79
2018-09-26T13:40:25.743Z,978.80
2018-09-26T13:41:25.662Z,978.80
2018-09-26T13:42:25.688Z,978.84
2018-09-26T13:43:25.669Z,978.86
2018-09-26T13:44:25.704Z,978.83
2018-09-26T13:45:25.880Z,978.86
2018-09-26T13:46:25.759Z,978.80
2018-09-26T13:47:25.681Z,978.83
2018-09-26T13:48:25.759Z,978.81
2018-09-26T13:49:25.683Z,978.83
2018-09-26T13:50:25.775Z,978.85
2018-09-26T13:51:25.690Z,978.81
2018-09-26T13:52:25.718Z,978.82
2018-09-26T13:53:25.856Z,978.78
2018-09-26T13:54:25.798Z,978.81
2018-09-26T13:55:25.702Z,978.79
2018-09-26T13:56:25.739Z,978.76
2018-09-26T13:57:25.708Z,978.76
2018-09-26T13:58:25.798Z,978.81
2018-09-26T13:59:25.708Z,978.78
2018-09-26T14:00:25.789Z,978.78
2018-09-26T14:01:25.778Z,978.74
2018-09-26T14:02:25.900Z,978.69
2018-09-26T14:03:25.720Z,978.69
2018-09-26T14:04:25.784Z,978.63
2018-09-26T14:06:18.790Z,978.60
2018-09-26T14:07:19.026Z,978.64
2018-09-26T14:09:12.745Z,978.62
2018-09-26T14:10:12.560Z,978.56
2018-09-26T14:12:05.213Z,978.58
2018-09-26T14:13:05.254Z,978.50
2018-09-26T14:14:58.136Z,978.48
2018-09-26T14:15:58.091Z,978.44
2018-09-26T14:17:50.950Z,978.36
2018-09-26T14:18:50.895Z,978.34
2018-09-26T14:20:43.872Z,978.37
2018-09-26T14:21:43.944Z,978.31
2018-09-26T14:23:36.823Z,978.32
2018-09-26T14:24:36.680Z,978.31
2018-09-26T14:26:33.045Z,978.28
2018-09-26T14:27:32.991Z,978.26
2018-09-26T14:29:25.927Z,978.25
2018-09-26T14:30:26.032Z,978.24
2018-09-26T14:31:25.930Z,978.25
2018-09-26T14:32:25.948Z,978.22
2018-09-26T14:33:26.553Z,978.23
2018-09-26T14:34:25.851Z,978.16
2018-09-26T14:35:25.917Z,978.20
2018-09-26T14:36:25.863Z,978.18
2018-09-26T14:37:25.860Z,978.17
2018-09-26T14:38:25.947Z,978.14
2018-09-26T14:39:25.957Z,978.14
2018-09-26T14:40:25.872Z,978.14
2018-09-26T14:41:25.946Z,978.06
2018-09-26T14:42:25.873Z,978.07